createdAt,value
2018-03-07T00:00:45.591Z,0
2018-03-07T00:01:55.651Z,0
2018-03-07T00:03:05.710Z,0
2018-03-07T00:04:15.760Z,0
2018-03-07T00:05:25.541Z,0
2018-03-07T00:06:35.136Z,0
2018-03-07T00:07:45.200Z,0
2018-03-07T00:08:55.256Z,0
2018-03-07T00:10:04.800Z,0
2018-03-07T00:11:14.875Z,0
2018-03-07T00:12:24.993Z,0
2018-03-07T00:13:35.059Z,0
2018-03-07T00:14:44.865Z,0
2018-03-07T00:15:54.980Z,0
2018-03-07T00:17:05.042Z,0
2018-03-07T00:18:15.126Z,0
2018-03-07T00:19:25.249Z,0
2018-03-07T00:20:35.328Z,0
2018-03-07T00:21:45.389Z,0
2018-03-07T00:22:55.458Z,0
2018-03-07T00:24:05.261Z,0
2018-03-07T00:25:15.341Z,0
2018-03-07T00:26:25.417Z,0
2018-03-07T00:27:35.471Z,0
2018-03-07T00:28:45.539Z,0
2018-03-07T00:29:55.350Z,0
2018-03-07T00:31:04.890Z,0
2018-03-07T00:32:14.954Z,0
2018-03-07T00:33:25.032Z,0
2018-03-07T00:34:35.095Z,0
2018-03-07T00:35:45.156Z,0
2018-03-07T00:36:55.199Z,0
2018-03-07T00:38:05.248Z,0
2018-03-07T00:39:15.051Z,0
2018-03-07T00:40:25.133Z,0
2018-03-07T00:41:35.035Z,0
2018-03-07T00:42:45.091Z,0
2018-03-07T00:43:54.887Z,0
2018-03-07T00:45:04.417Z,0
2018-03-07T00:46:14.227Z,0
2018-03-07T00:47:24.082Z,0
2018-03-07T00:48:33.573Z,0
2018-03-07T00:49:43.121Z,0
2018-03-07T00:50:53.190Z,0
2018-03-07T00:52:03.012Z,0
2018-03-07T00:53:12.549Z,0
2018-03-07T00:54:22.613Z,0
2018-03-07T00:55:32.422Z,0
2018-03-07T00:56:42.239Z,0
2018-03-07T00:57:52.041Z,0
2018-03-07T00:59:01.848Z,0
2018-03-07T01:00:11.971Z,0
2018-03-07T01:01:21.790Z,0
2018-03-07T01:02:31.858Z,0
2018-03-07T01:03:41.904Z,0
2018-03-07T01:04:51.971Z,0
2018-03-07T01:06:02.069Z,0
2018-03-07T01:07:12.136Z,0
2018-03-07T01:08:22.185Z,0
2018-03-07T01:09:32.258Z,0
2018-03-07T01:10:42.304Z,0
2018-03-07T01:11:52.357Z,0
2018-03-07T01:13:02.420Z,0
2018-03-07T01:14:12.466Z,0
2018-03-07T01:15:22.508Z,0
2018-03-07T01:16:32.569Z,0
2018-03-07T01:17:42.622Z,0
2018-03-07T01:18:52.687Z,0
2018-03-07T01:20:02.487Z,0
2018-03-07T01:21:12.546Z,0
2018-03-07T01:22:22.653Z,0
2018-03-07T01:23:32.456Z,0
2018-03-07T01:24:42.536Z,0
2018-03-07T01:25:52.583Z,0
2018-03-07T01:27:02.642Z,0
2018-03-07T01:28:12.704Z,0
2018-03-07T01:29:22.754Z,0
2018-03-07T01:30:32.806Z,0
2018-03-07T01:31:42.338Z,0
2018-03-07T01:32:52.396Z,0
2018-03-07T01:34:01.930Z,0
2018-03-07T01:35:11.991Z,0
2018-03-07T01:36:22.060Z,0
2018-03-07T01:37:32.131Z,0
2018-03-07T01:38:41.937Z,0
2018-03-07T01:39:51.785Z,0
2018-03-07T01:41:01.591Z,0
2018-03-07T01:42:11.650Z,0
2018-03-07T01:43:21.716Z,0
2018-03-07T01:44:31.514Z,0
2018-03-07T01:45:41.563Z,0
2018-03-07T01:46:51.632Z,0
2018-03-07T01:48:01.694Z,0
2018-03-07T01:49:11.753Z,0
2018-03-07T01:50:21.806Z,0
2018-03-07T01:51:31.847Z,0
2018-03-07T01:52:41.900Z,0
2018-03-07T01:53:51.950Z,0
2018-03-07T01:55:02.018Z,0
2018-03-07T01:56:11.804Z,0
2018-03-07T01:57:21.885Z,0
2018-03-07T01:58:31.680Z,0
2018-03-07T01:59:41.481Z,0
2018-03-07T02:00:51.537Z,0
2018-03-07T02:02:01.590Z,0
2018-03-07T02:03:11.424Z,0
2018-03-07T02:04:21.226Z,0
2018-03-07T02:05:31.285Z,0
2018-03-07T02:06:41.073Z,0
2018-03-07T02:07:50.891Z,0
2018-03-07T02:09:00.750Z,0
2018-03-07T02:10:10.545Z,0
2018-03-07T02:11:20.607Z,0
2018-03-07T02:12:30.408Z,0
2018-03-07T02:13:40.211Z,0
2018-03-07T02:14:50.307Z,0
2018-03-07T02:16:00.360Z,0
2018-03-07T02:17:10.155Z,0
2018-03-07T02:18:19.946Z,0
2018-03-07T02:19:29.778Z,0
2018-03-07T02:20:39.628Z,0
2018-03-07T02:21:49.427Z,0
2018-03-07T02:22:59.239Z,0
2018-03-07T02:24:09.302Z,0
2018-03-07T02:25:19.353Z,0
2018-03-07T02:26:29.409Z,0
2018-03-07T02:27:38.925Z,0
2018-03-07T02:28:48.744Z,0
2018-03-07T02:29:58.531Z,0
2018-03-07T02:31:08.138Z,0
2018-03-07T02:32:17.661Z,0
2018-03-07T02:33:27.718Z,0
2018-03-07T02:34:37.827Z,0
2018-03-07T02:35:47.627Z,0
2018-03-07T02:36:57.759Z,0
2018-03-07T02:38:07.566Z,0
2018-03-07T02:39:17.642Z,0
2018-03-07T02:40:27.196Z,0
2018-03-07T02:41:37.259Z,0
2018-03-07T02:42:47.058Z,0
2018-03-07T02:43:56.867Z,0
2018-03-07T02:45:06.660Z,0
2018-03-07T02:46:16.757Z,0
2018-03-07T02:47:26.572Z,0
2018-03-07T02:48:36.657Z,0
2018-03-07T02:49:46.717Z,0
2018-03-07T02:50:56.795Z,0
2018-03-07T02:52:06.865Z,0
2018-03-07T02:53:16.660Z,0
2018-03-07T02:54:26.739Z,0
2018-03-07T02:55:36.543Z,0
2018-03-07T02:56:46.617Z,0
2018-03-07T02:57:56.703Z,0
2018-03-07T02:59:06.770Z,0
2018-03-07T03:00:16.937Z,0
2018-03-07T03:01:27.009Z,0
2018-03-07T03:02:36.803Z,0
2018-03-07T03:03:46.882Z,0
2018-03-07T03:04:56.991Z,0
2018-03-07T03:06:06.808Z,0
2018-03-07T03:07:16.910Z,0
2018-03-07T03:08:26.971Z,0
2018-03-07T03:39:59.137Z,0
2018-03-07T03:41:09.251Z,0
2018-03-07T03:42:19.313Z,0
2018-03-07T03:43:29.111Z,0
2018-03-07T03:44:39.165Z,0
2018-03-07T03:45:49.335Z,0
2018-03-07T03:46:59.117Z,0
2018-03-07T03:48:08.708Z,0
2018-03-07T03:49:18.778Z,0
2018-03-07T03:50:28.831Z,0
2018-03-07T03:51:38.933Z,0
2018-03-07T03:52:49.001Z,0
2018-03-07T03:53:59.062Z,0
2018-03-07T03:55:09.136Z,0
2018-03-07T03:56:19.201Z,0
2018-03-07T03:57:29.016Z,0
2018-03-07T03:58:38.806Z,0
2018-03-07T03:59:48.351Z,0
2018-03-07T04:00:58.404Z,0
2018-03-07T04:02:08.465Z,0
2018-03-07T04:03:18.307Z,0
2018-03-07T04:04:28.119Z,0
2018-03-07T04:05:38.260Z,0
2018-03-07T04:06:48.315Z,0
2018-03-07T04:07:58.363Z,0
2018-03-07T04:09:08.466Z,0
2018-03-07T04:10:18.511Z,0
2018-03-07T04:11:28.555Z,0
2018-03-07T04:12:38.334Z,0
2018-03-07T04:13:48.390Z,0
2018-03-07T04:14:58.195Z,0
2018-03-07T04:16:07.996Z,0
2018-03-07T04:17:18.048Z,0
2018-03-07T04:18:27.572Z,0
2018-03-07T04:19:37.380Z,0
2018-03-07T04:20:47.222Z,0
2018-03-07T04:21:57.295Z,0
2018-03-07T04:23:07.367Z,0
2018-03-07T04:24:17.426Z,0
2018-03-07T04:25:27.531Z,0
2018-03-07T04:26:37.681Z,0
2018-03-07T04:27:47.744Z,0
2018-03-07T04:28:57.791Z,0
2018-03-07T04:30:07.861Z,0
2018-03-07T04:31:17.662Z,0
2018-03-07T04:32:27.714Z,0
2018-03-07T04:33:37.777Z,0
2018-03-07T04:34:47.847Z,0
2018-03-07T04:35:57.897Z,0
2018-03-07T04:37:07.681Z,0
2018-03-07T04:38:17.467Z,0
2018-03-07T04:39:27.258Z,0
2018-03-07T04:40:37.326Z,0
2018-03-07T04:41:47.208Z,0
2018-03-07T04:42:57.042Z,0
2018-03-07T04:44:07.140Z,0
2018-03-07T04:45:16.920Z,0
2018-03-07T04:46:26.981Z,0
2018-03-07T04:47:36.789Z,0
2018-03-07T04:48:46.580Z,0
2018-03-07T04:49:56.155Z,0
2018-03-07T04:51:05.932Z,0
2018-03-07T04:52:15.991Z,0
2018-03-07T04:53:25.801Z,0
2018-03-07T04:54:35.604Z,0
2018-03-07T04:55:45.434Z,0
2018-03-07T04:56:54.967Z,0
2018-03-07T04:58:05.039Z,4
2018-03-07T04:59:14.577Z,0
2018-03-07T05:00:24.657Z,0
2018-03-07T05:01:34.843Z,4
2018-03-07T05:02:45.233Z,0
2018-03-07T05:03:55.401Z,4
2018-03-07T05:05:05.191Z,4
2018-03-07T05:06:15.263Z,4
2018-03-07T05:07:24.853Z,8
2018-03-07T05:08:34.914Z,12
2018-03-07T05:09:44.726Z,8
2018-03-07T05:10:54.792Z,12
2018-03-07T05:12:04.345Z,20
2018-03-07T05:13:14.508Z,20
2018-03-07T05:14:24.616Z,24
2018-03-07T05:15:34.676Z,24
2018-03-07T05:16:44.737Z,32
2018-03-07T05:17:54.531Z,36
2018-03-07T05:19:04.595Z,40
2018-03-07T05:20:14.654Z,48
2018-03-07T05:21:24.717Z,56
2018-03-07T05:22:34.777Z,64
2018-03-07T05:23:44.838Z,76
2018-03-07T05:24:54.688Z,84
2018-03-07T05:26:04.502Z,92
2018-03-07T05:27:14.582Z,100
2018-03-07T05:28:24.649Z,116
2018-03-07T05:29:34.700Z,128
2018-03-07T05:30:44.805Z,144
2018-03-07T05:31:54.850Z,164
2018-03-07T05:33:04.903Z,188
2018-03-07T05:34:14.448Z,208
2018-03-07T05:35:24.289Z,232
2018-03-07T05:36:34.345Z,260
2018-03-07T05:37:44.414Z,284
2018-03-07T05:38:54.227Z,312
2018-03-07T05:40:04.021Z,344
2018-03-07T05:41:14.078Z,380
2018-03-07T05:42:23.877Z,420
2018-03-07T05:43:33.931Z,452
2018-03-07T05:44:43.975Z,496
2018-03-07T05:45:54.111Z,536
2018-03-07T05:47:03.918Z,572
2018-03-07T05:48:13.720Z,616
2018-03-07T05:49:23.516Z,648
2018-03-07T05:50:33.582Z,692
2018-03-07T05:51:43.378Z,744
2018-03-07T05:52:53.457Z,792
2018-03-07T05:54:03.522Z,840
2018-03-07T05:55:13.328Z,880
2018-03-07T05:56:23.386Z,952
2018-03-07T05:57:33.241Z,1012
2018-03-07T05:58:43.305Z,1084
2018-03-07T05:59:53.115Z,1140
2018-03-07T06:01:02.923Z,1164
2018-03-07T06:02:12.989Z,1184
2018-03-07T06:03:23.049Z,1216
2018-03-07T06:04:33.114Z,1264
2018-03-07T06:05:42.926Z,1308
2018-03-07T06:06:52.987Z,1360
2018-03-07T06:08:03.043Z,1384
2018-03-07T06:09:12.902Z,1412
2018-03-07T06:10:22.952Z,1452
2018-03-07T06:11:32.749Z,1488
2018-03-07T06:12:42.810Z,1512
2018-03-07T06:13:52.877Z,1552
2018-03-07T06:15:02.945Z,1588
2018-03-07T06:16:13.006Z,1624
2018-03-07T06:17:23.071Z,1672
2018-03-07T06:18:32.864Z,1856
2018-03-07T06:19:42.918Z,2032
2018-03-07T06:20:52.765Z,2184
2018-03-07T06:22:02.555Z,2296
2018-03-07T06:23:12.616Z,2308
2018-03-07T06:24:22.689Z,2208
2018-03-07T06:25:32.760Z,2016
2018-03-07T06:26:42.295Z,1848
2018-03-07T06:27:52.387Z,1736
2018-03-07T06:29:02.447Z,1672
2018-03-07T06:30:12.243Z,1652
2018-03-07T06:31:22.324Z,1668
2018-03-07T06:32:32.189Z,1692
2018-03-07T06:33:42.251Z,1692
2018-03-07T06:34:52.301Z,1668
2018-03-07T06:36:02.101Z,1620
2018-03-07T06:37:11.924Z,1540
2018-03-07T06:38:22.015Z,1424
2018-03-07T06:39:31.808Z,1304
2018-03-07T06:40:41.597Z,1212
2018-03-07T06:41:51.660Z,1152
2018-03-07T06:43:01.462Z,1088
2018-03-07T06:44:11.521Z,1004
2018-03-07T06:45:21.320Z,912
2018-03-07T06:46:31.493Z,852
2018-03-07T06:47:41.568Z,824
2018-03-07T06:48:51.625Z,824
2018-03-07T06:50:01.438Z,820
2018-03-07T06:51:10.985Z,796
2018-03-07T06:52:21.045Z,748
2018-03-07T06:53:31.093Z,692
2018-03-07T06:54:40.630Z,656
2018-03-07T06:55:50.416Z,628
2018-03-07T06:57:00.222Z,616
2018-03-07T06:58:10.511Z,616
2018-03-07T06:59:20.334Z,624
2018-03-07T07:00:30.412Z,640
2018-03-07T07:01:40.470Z,652
2018-03-07T07:02:50.527Z,688
2018-03-07T07:04:00.335Z,728
2018-03-07T07:05:10.411Z,772
2018-03-07T07:06:20.346Z,804
2018-03-07T07:07:30.461Z,824
2018-03-07T07:08:40.252Z,828
2018-03-07T07:09:50.321Z,828
2018-03-07T07:11:00.376Z,828
2018-03-07T07:12:10.182Z,820
2018-03-07T07:13:19.728Z,816
2018-03-07T07:14:29.781Z,824
2018-03-07T07:15:39.855Z,856
2018-03-07T07:16:49.667Z,908
2018-03-07T07:17:59.847Z,964
2018-03-07T07:19:09.923Z,1028
2018-03-07T07:20:19.475Z,1124
2018-03-07T07:21:29.351Z,1200
2018-03-07T07:22:39.146Z,1236
2018-03-07T07:23:48.678Z,1264
2018-03-07T07:24:58.494Z,1324
2018-03-07T07:26:08.583Z,1412
2018-03-07T07:27:18.643Z,1500
2018-03-07T07:28:28.465Z,1532
2018-03-07T07:29:38.522Z,1500
2018-03-07T07:30:48.574Z,1416
2018-03-07T07:31:58.362Z,1300
2018-03-07T07:33:08.424Z,1156
2018-03-07T07:34:18.263Z,1044
2018-03-07T07:35:28.076Z,964
2018-03-07T07:36:37.873Z,916
2018-03-07T07:37:47.983Z,892
2018-03-07T07:38:57.784Z,880
2018-03-07T07:40:07.588Z,860
2018-03-07T07:41:17.379Z,828
2018-03-07T07:42:27.450Z,796
2018-03-07T07:43:37.529Z,780
2018-03-07T07:44:47.590Z,780
2018-03-07T07:45:57.653Z,780
2018-03-07T07:47:07.748Z,752
2018-03-07T07:48:17.546Z,720
2018-03-07T07:49:27.632Z,696
2018-03-07T07:50:37.709Z,684
2018-03-07T07:51:47.770Z,688
2018-03-07T07:52:57.884Z,712
2018-03-07T07:54:07.676Z,752
2018-03-07T07:55:17.485Z,828
2018-03-07T07:56:27.557Z,940
2018-03-07T07:57:37.384Z,1072
2018-03-07T07:58:47.495Z,1216
2018-03-07T07:59:57.571Z,1368
2018-03-07T08:01:07.407Z,1500
2018-03-07T08:02:17.470Z,1600
2018-03-07T08:03:27.600Z,1696
2018-03-07T08:04:37.665Z,1812
2018-03-07T08:05:47.469Z,1944
2018-03-07T08:06:57.518Z,2084
2018-03-07T08:08:07.579Z,2216
2018-03-07T08:09:17.107Z,2344
2018-03-07T08:10:27.182Z,2456
2018-03-07T08:11:36.965Z,2552
2018-03-07T08:12:46.823Z,2656
2018-03-07T08:13:56.887Z,2752
2018-03-07T08:15:06.460Z,2848
2018-03-07T08:16:16.522Z,2924
2018-03-07T08:17:26.600Z,2972
2018-03-07T08:18:36.666Z,2992
2018-03-07T08:19:46.708Z,2980
2018-03-07T08:20:56.765Z,2948
2018-03-07T08:22:06.841Z,2948
2018-03-07T08:23:16.939Z,2972
2018-03-07T08:24:27.007Z,3024
2018-03-07T08:25:36.825Z,3092
2018-03-07T08:26:46.883Z,3180
2018-03-07T08:27:56.940Z,3308
2018-03-07T08:29:07.012Z,3464
2018-03-07T08:30:16.881Z,3600
2018-03-07T08:31:26.930Z,3708
2018-03-07T08:32:36.460Z,3772
2018-03-07T08:33:46.530Z,3788
2018-03-07T08:34:56.591Z,3768
2018-03-07T08:36:06.463Z,3720
2018-03-07T08:37:16.525Z,3672
2018-03-07T08:38:26.585Z,3652
2018-03-07T08:39:36.657Z,3700
2018-03-07T08:40:46.464Z,3772
2018-03-07T08:41:56.568Z,3812
2018-03-07T08:43:06.356Z,3812
2018-03-07T08:44:16.425Z,3840
2018-03-07T08:45:26.496Z,3864
2018-03-07T08:46:36.298Z,3876
2018-03-07T08:47:46.154Z,3892
2018-03-07T08:48:56.209Z,3912
2018-03-07T08:50:06.333Z,3972
2018-03-07T08:51:16.405Z,4080
2018-03-07T08:52:26.484Z,4180
2018-03-07T08:53:36.535Z,4232
2018-03-07T08:54:46.640Z,4268
2018-03-07T08:55:56.548Z,4308
2018-03-07T08:57:06.615Z,4340
2018-03-07T08:58:16.671Z,4416
2018-03-07T08:59:26.732Z,4464
2018-03-07T09:00:36.876Z,4452
2018-03-07T09:01:47.008Z,4380
2018-03-07T09:02:56.799Z,4284
2018-03-07T09:04:06.859Z,4188
2018-03-07T09:05:16.936Z,4156
2018-03-07T09:06:26.231Z,4184
2018-03-07T09:07:36.282Z,4276
2018-03-07T09:08:46.345Z,4340
2018-03-07T09:09:56.418Z,4400
2018-03-07T09:11:06.495Z,4400
2018-03-07T09:12:16.292Z,4404
2018-03-07T09:13:26.378Z,4392
2018-03-07T09:14:36.433Z,4396
2018-03-07T09:15:46.513Z,4404
2018-03-07T09:16:56.042Z,4476
2018-03-07T09:18:06.105Z,4556
2018-03-07T09:19:16.176Z,4596
2018-03-07T09:20:26.248Z,4636
2018-03-07T09:21:36.353Z,4720
2018-03-07T09:22:46.428Z,4784
2018-03-07T09:23:56.492Z,4752
2018-03-07T09:25:06.559Z,4704
2018-03-07T09:26:16.627Z,4656
2018-03-07T09:27:26.695Z,4560
2018-03-07T09:28:36.508Z,4412
2018-03-07T09:29:46.579Z,4208
2018-03-07T09:30:56.651Z,4004
2018-03-07T09:32:06.722Z,3884
2018-03-07T09:33:16.788Z,3956
2018-03-07T09:34:26.874Z,3964
2018-03-07T09:35:36.973Z,3820
2018-03-07T09:36:46.765Z,3956
2018-03-07T09:37:56.827Z,3876
2018-03-07T09:39:06.907Z,3844
2018-03-07T09:40:16.695Z,3804
2018-03-07T09:41:26.758Z,3948
2018-03-07T09:42:36.563Z,4004
2018-03-07T09:43:46.367Z,4400
2018-03-07T09:44:56.449Z,5324
2018-03-07T09:46:06.263Z,5636
2018-03-07T09:47:16.351Z,6000
2018-03-07T09:48:26.857Z,6136
2018-03-07T09:49:36.899Z,6552
2018-03-07T09:50:46.975Z,6428
2018-03-07T09:51:57.054Z,7080
2018-03-07T09:53:06.861Z,7148
2018-03-07T09:54:16.662Z,6864
2018-03-07T09:55:26.464Z,7864
2018-03-07T09:56:36.613Z,7928
2018-03-07T09:57:45.945Z,7964
2018-03-07T09:58:56.016Z,7128
2018-03-07T10:00:05.816Z,6636
2018-03-07T10:01:15.631Z,6560
2018-03-07T10:02:25.427Z,6040
2018-03-07T10:03:35.246Z,7440
2018-03-07T10:04:44.795Z,6616
2018-03-07T10:05:54.863Z,8128
2018-03-07T10:07:05.040Z,7904
2018-03-07T10:08:15.255Z,8144
2018-03-07T10:09:25.323Z,8736
2018-03-07T10:10:35.404Z,9116
2018-03-07T10:11:45.487Z,9120
2018-03-07T10:12:55.548Z,9204
2018-03-07T10:14:05.616Z,9208
2018-03-07T10:15:15.509Z,8928
2018-03-07T10:16:24.789Z,8716
2018-03-07T10:17:34.906Z,7824
2018-03-07T10:18:44.989Z,8008
2018-03-07T10:19:54.853Z,8484
2018-03-07T10:21:04.988Z,8912
2018-03-07T10:22:15.101Z,10228
2018-03-07T10:23:24.644Z,10232
2018-03-07T10:24:34.184Z,10556
2018-03-07T10:25:44.327Z,10780
2018-03-07T10:26:54.120Z,10720
2018-03-07T10:28:03.961Z,10476
2018-03-07T10:29:13.520Z,9200
2018-03-07T10:30:23.060Z,7408
2018-03-07T10:31:32.935Z,7152
2018-03-07T10:32:43.020Z,10024
2018-03-07T10:33:52.826Z,9560
2018-03-07T10:35:02.358Z,11552
2018-03-07T10:36:12.412Z,11312
2018-03-07T10:37:22.499Z,10744
2018-03-07T10:38:32.563Z,10012
2018-03-07T10:39:42.728Z,7792
2018-03-07T10:40:52.803Z,8740
2018-03-07T10:42:02.868Z,6540
2018-03-07T10:43:12.737Z,5972
2018-03-07T10:44:22.814Z,6004
2018-03-07T10:45:32.888Z,6368
2018-03-07T10:46:43.126Z,7572
2018-03-07T10:47:53.207Z,10560
2018-03-07T10:49:03.022Z,9240
2018-03-07T10:50:12.866Z,8420
2018-03-07T10:51:22.746Z,10948
2018-03-07T10:52:32.298Z,11208
2018-03-07T10:53:42.390Z,10620
2018-03-07T10:54:51.978Z,10092
2018-03-07T10:56:01.527Z,8080
2018-03-07T10:57:11.341Z,7660
2018-03-07T10:58:21.163Z,7680
2018-03-07T10:59:31.216Z,7520
2018-03-07T11:00:41.336Z,7628
2018-03-07T11:01:51.149Z,6712
2018-03-07T11:03:00.959Z,6672
2018-03-07T11:04:10.757Z,5960
2018-03-07T11:05:20.825Z,5752
2018-03-07T11:06:30.951Z,6064
2018-03-07T11:07:41.019Z,5576
2018-03-07T11:08:51.120Z,5376
2018-03-07T11:10:01.181Z,5276
2018-03-07T11:11:10.728Z,5108
2018-03-07T11:12:20.844Z,4788
2018-03-07T11:13:30.925Z,4612
2018-03-07T11:14:40.845Z,4608
2018-03-07T11:15:50.903Z,4616
2018-03-07T11:17:00.982Z,4584
2018-03-07T11:18:11.112Z,4480
2018-03-07T11:19:21.187Z,4360
2018-03-07T11:20:31.262Z,4192
2018-03-07T11:21:41.340Z,4080
2018-03-07T11:22:51.409Z,4080
2018-03-07T11:24:01.478Z,4164
2018-03-07T11:25:11.558Z,4272
2018-03-07T11:26:21.637Z,4356
2018-03-07T11:27:31.714Z,4304
2018-03-07T11:28:41.987Z,4228
2018-03-07T11:29:52.052Z,4164
2018-03-07T11:31:01.878Z,4316
2018-03-07T11:32:11.969Z,4596
2018-03-07T11:33:22.042Z,4928
2018-03-07T11:34:32.236Z,5092
2018-03-07T11:35:42.315Z,5168
2018-03-07T11:36:52.112Z,5028
2018-03-07T11:38:01.657Z,4776
2018-03-07T11:39:11.714Z,4588
2018-03-07T11:40:21.831Z,4500
2018-03-07T11:41:31.368Z,4448
2018-03-07T11:42:41.446Z,4516
2018-03-07T11:43:51.245Z,4700
2018-03-07T11:45:01.384Z,5016
2018-03-07T11:46:11.366Z,5176
2018-03-07T11:47:20.918Z,5304
2018-03-07T11:48:31.004Z,5296
2018-03-07T11:49:41.087Z,5204
2018-03-07T11:50:50.881Z,5164
2018-03-07T11:52:00.975Z,5188
2018-03-07T11:53:11.051Z,5108
2018-03-07T11:54:21.132Z,4976
2018-03-07T11:55:31.220Z,4992
2018-03-07T11:56:41.316Z,5188
2018-03-07T11:57:51.407Z,5388
2018-03-07T11:59:00.694Z,5460
2018-03-07T12:00:10.778Z,5488
2018-03-07T12:01:20.862Z,5344
2018-03-07T12:02:30.926Z,5324
2018-03-07T12:03:40.462Z,5392
2018-03-07T12:04:50.378Z,5352
2018-03-07T12:06:00.178Z,5312
2018-03-07T12:07:10.309Z,5316
2018-03-07T12:08:20.439Z,5392
2018-03-07T12:09:30.518Z,6716
2018-03-07T12:10:40.676Z,8996
2018-03-07T12:11:50.772Z,7044
2018-03-07T12:13:00.835Z,8808
2018-03-07T12:14:10.435Z,5828
2018-03-07T12:15:20.520Z,5584
2018-03-07T12:16:30.592Z,5180
2018-03-07T12:17:40.812Z,5120
2018-03-07T12:18:50.609Z,5044
2018-03-07T12:20:00.715Z,5000
2018-03-07T12:21:10.790Z,4924
2018-03-07T12:22:20.868Z,4856
2018-03-07T12:23:30.965Z,4804
2018-03-07T12:24:41.057Z,4664
2018-03-07T12:25:51.150Z,4444
2018-03-07T12:27:00.440Z,4216
2018-03-07T12:28:10.260Z,4024
2018-03-07T12:29:20.333Z,3908
2018-03-07T12:30:30.392Z,3848
2018-03-07T12:31:40.191Z,3856
2018-03-07T12:32:50.351Z,3900
2018-03-07T12:33:59.973Z,3952
2018-03-07T12:35:10.059Z,4036
2018-03-07T12:36:20.148Z,4052
2018-03-07T12:37:30.212Z,4052
2018-03-07T12:38:40.264Z,4112
2018-03-07T12:39:49.854Z,4212
2018-03-07T12:40:59.971Z,4324
2018-03-07T12:42:10.048Z,4432
2018-03-07T12:43:20.126Z,4536
2018-03-07T12:44:29.933Z,4628
2018-03-07T12:45:39.798Z,4632
2018-03-07T12:46:49.351Z,4596
2018-03-07T12:47:59.177Z,4580
2018-03-07T12:49:08.730Z,4556
2018-03-07T12:50:18.800Z,4536
2018-03-07T12:51:28.925Z,4520
2018-03-07T12:52:38.740Z,4448
2018-03-07T12:53:48.806Z,4388
2018-03-07T12:54:58.338Z,4364
2018-03-07T12:56:08.401Z,4372
2018-03-07T12:57:18.276Z,4384
2018-03-07T12:58:28.392Z,4432
2018-03-07T12:59:38.492Z,4460
2018-03-07T13:00:48.608Z,4516
2018-03-07T13:01:58.679Z,4624
2018-03-07T13:03:08.832Z,4732
2018-03-07T13:04:18.902Z,4856
2018-03-07T13:05:28.725Z,4888
2018-03-07T13:06:38.817Z,4772
2018-03-07T13:07:48.904Z,4644
2018-03-07T13:08:58.784Z,4544
2018-03-07T13:10:08.867Z,4460
2018-03-07T13:11:18.689Z,4420
2018-03-07T13:12:28.785Z,4392
2018-03-07T13:13:38.888Z,4340
2018-03-07T13:14:49.038Z,4120
2018-03-07T13:15:59.124Z,3848
2018-03-07T13:17:09.022Z,3676
2018-03-07T13:18:18.833Z,3580
2018-03-07T13:19:28.895Z,3528
2018-03-07T13:20:38.967Z,3408
2018-03-07T13:21:49.049Z,3236
2018-03-07T13:22:58.884Z,3136
2018-03-07T13:24:08.702Z,5132
2018-03-07T13:25:18.538Z,7972
2018-03-07T13:26:28.657Z,4220
2018-03-07T13:27:38.731Z,3960
2018-03-07T13:28:48.843Z,4724
2018-03-07T13:29:58.995Z,3876
2018-03-07T13:31:08.818Z,3544
2018-03-07T13:32:18.900Z,3796
2018-03-07T13:33:28.463Z,6724
2018-03-07T13:34:38.279Z,7712
2018-03-07T13:35:48.093Z,6896
2018-03-07T13:36:57.914Z,6952
2018-03-07T13:38:07.725Z,6888
2018-03-07T13:39:17.788Z,6728
2018-03-07T13:40:27.603Z,6632
2018-03-07T13:41:37.738Z,6744
2018-03-07T13:42:47.302Z,6616
2018-03-07T13:43:57.379Z,6640
2018-03-07T13:45:07.211Z,6620
2018-03-07T13:46:16.996Z,6632
2018-03-07T13:47:27.068Z,6704
2018-03-07T13:48:36.878Z,6668
2018-03-07T13:49:47.064Z,6652
2018-03-07T13:50:56.971Z,6740
2018-03-07T13:52:07.046Z,6748
2018-03-07T13:53:17.108Z,6832
2018-03-07T13:54:27.212Z,6924
2018-03-07T13:55:37.318Z,6976
2018-03-07T13:56:46.873Z,7024
2018-03-07T13:57:56.694Z,7052
2018-03-07T13:59:06.245Z,7144
2018-03-07T14:00:15.558Z,7256
2018-03-07T14:01:25.707Z,7324
2018-03-07T14:02:35.779Z,7324
2018-03-07T14:03:45.588Z,7284
2018-03-07T14:04:55.646Z,7244
2018-03-07T14:06:05.749Z,7212
2018-03-07T14:07:15.306Z,7236
2018-03-07T14:08:25.383Z,7088
2018-03-07T14:09:34.940Z,6960
2018-03-07T14:10:45.003Z,6828
2018-03-07T14:11:54.544Z,6596
2018-03-07T14:13:04.356Z,6524
2018-03-07T14:14:14.440Z,6352
2018-03-07T14:15:24.507Z,6344
2018-03-07T14:16:34.587Z,6308
2018-03-07T14:17:44.410Z,6396
2018-03-07T14:18:54.522Z,6048
2018-03-07T14:20:04.596Z,3228
2018-03-07T14:21:14.674Z,3336
2018-03-07T14:22:24.747Z,3800
2018-03-07T14:23:34.825Z,3056
2018-03-07T14:24:44.107Z,3072
2018-03-07T14:25:54.187Z,3676
2018-03-07T14:27:04.252Z,3168
2018-03-07T14:28:14.078Z,3464
2018-03-07T14:29:24.173Z,4196
2018-03-07T14:30:33.721Z,4044
2018-03-07T14:31:43.805Z,4500
2018-03-07T14:32:53.374Z,5960
2018-03-07T14:34:03.217Z,4940
2018-03-07T14:35:13.031Z,5676
2018-03-07T14:36:22.295Z,5484
2018-03-07T14:37:31.578Z,5372
2018-03-07T14:38:41.129Z,5308
2018-03-07T14:39:50.676Z,5244
2018-03-07T14:41:00.547Z,5176
2018-03-07T14:42:10.390Z,5156
2018-03-07T14:43:19.946Z,5056
2018-03-07T14:44:30.010Z,3836
2018-03-07T14:45:40.105Z,5324
2018-03-07T14:46:50.182Z,5288
2018-03-07T14:48:00.337Z,5356
2018-03-07T14:49:10.436Z,5496
2018-03-07T14:50:20.251Z,5056
2018-03-07T14:51:30.070Z,4484
2018-03-07T14:52:40.236Z,3132
2018-03-07T14:53:50.125Z,3060
2018-03-07T14:54:59.679Z,4616
2018-03-07T14:56:09.840Z,3436
2018-03-07T14:57:19.640Z,2832
2018-03-07T14:58:29.716Z,2772
2018-03-07T14:59:39.253Z,2716
2018-03-07T15:00:49.077Z,2696
2018-03-07T15:01:58.628Z,2692
2018-03-07T15:03:08.428Z,2692
2018-03-07T15:04:18.568Z,2668
2018-03-07T15:05:28.634Z,2612
2018-03-07T15:06:38.448Z,2532
2018-03-07T15:07:48.514Z,2484
2018-03-07T15:08:58.337Z,2424
2018-03-07T15:10:08.645Z,2360
2018-03-07T15:11:18.721Z,2312
2018-03-07T15:12:28.827Z,2300
2018-03-07T15:13:38.917Z,2524
2018-03-07T15:14:48.994Z,2612
2018-03-07T15:15:59.130Z,2816
2018-03-07T15:17:09.250Z,3572
2018-03-07T15:18:19.350Z,3508
2018-03-07T15:19:29.439Z,3136
2018-03-07T15:20:39.532Z,3396
2018-03-07T15:21:49.641Z,3736
2018-03-07T15:22:59.730Z,3700
2018-03-07T15:24:09.823Z,3620
2018-03-07T15:25:19.892Z,3624
2018-03-07T15:26:29.994Z,3648
2018-03-07T15:27:40.145Z,3552
2018-03-07T15:28:50.283Z,3440
2018-03-07T15:30:00.368Z,3284
2018-03-07T15:31:10.241Z,3148
2018-03-07T15:32:20.340Z,3060
2018-03-07T15:33:30.163Z,2948
2018-03-07T15:34:40.219Z,2868
2018-03-07T15:35:50.057Z,2788
2018-03-07T15:37:00.138Z,2728
2018-03-07T15:38:10.229Z,2672
2018-03-07T15:39:20.131Z,2596
2018-03-07T15:40:29.513Z,2544
2018-03-07T15:41:39.431Z,2480
2018-03-07T15:42:49.521Z,2360
2018-03-07T15:43:59.621Z,2248
2018-03-07T15:45:09.418Z,2196
2018-03-07T15:46:19.504Z,2168
2018-03-07T15:47:29.634Z,2136
2018-03-07T15:48:39.715Z,2032
2018-03-07T15:49:49.803Z,1904
2018-03-07T15:50:59.674Z,1740
2018-03-07T15:52:09.789Z,1556
2018-03-07T15:53:19.874Z,1388
2018-03-07T15:54:29.987Z,1248
2018-03-07T15:55:40.078Z,1160
2018-03-07T15:56:50.151Z,1076
2018-03-07T15:57:59.708Z,996
2018-03-07T15:59:09.532Z,932
2018-03-07T16:00:19.610Z,888
2018-03-07T16:01:29.682Z,852
2018-03-07T16:02:39.769Z,820
2018-03-07T16:03:49.842Z,796
2018-03-07T16:04:59.950Z,768
2018-03-07T16:06:09.760Z,744
2018-03-07T16:07:19.838Z,724
2018-03-07T16:08:29.945Z,700
2018-03-07T16:09:40.075Z,680
2018-03-07T16:10:49.896Z,656
2018-03-07T16:11:59.439Z,636
2018-03-07T16:13:09.548Z,616
2018-03-07T16:14:19.908Z,600
2018-03-07T16:15:30.091Z,580
2018-03-07T16:16:40.256Z,564
2018-03-07T16:17:50.388Z,544
2018-03-07T16:19:00.592Z,524
2018-03-07T16:20:10.451Z,504
2018-03-07T16:21:20.574Z,484
2018-03-07T16:22:30.748Z,456
2018-03-07T16:23:40.838Z,436
2018-03-07T16:24:50.669Z,416
2018-03-07T16:26:00.746Z,392
2018-03-07T16:27:10.594Z,372
2018-03-07T16:28:20.671Z,356
2018-03-07T16:29:30.794Z,332
2018-03-07T16:30:41.207Z,312
2018-03-07T16:31:51.338Z,292
2018-03-07T16:33:01.424Z,272
2018-03-07T16:34:11.545Z,256